Time;durP1;ratioP1;P1;durP2;ratioP2;P2;SDS_P1;SDS_P2;PMS_P1;PMS_P2;Temp;Humidity;BMP_temperature;BMP_pressure;BME280_temperature;BME280_humidity;BME280_pressure;Samples;Min_cycle;Max_cycle;Signal;HPM_P1;HPM_P2
2023/07/12 00:01:19;;;;;;;4.35;1.75;;;21.50;99.90;;;;;;5029682;28;20429;-63
2023/07/12 00:03:48;;;;;;;3.55;1.40;;;21.50;99.90;;;;;;5030760;28;20088;-63
2023/07/12 00:06:17;;;;;;;;;;;21.40;99.90;;;;;;5012872;28;20042;-62
2023/07/12 00:08:43;;;;;;;5.80;1.67;;;21.30;99.90;;;;;;5023224;28;19944;-63
2023/07/12 00:11:19;;;;;;;4.57;2.30;;;21.10;99.90;;;;;;5005244;28;20090;-63
2023/07/12 00:13:47;;;;;;;5.72;2.28;;;20.90;99.90;;;;;;5030916;28;20038;-62
2023/07/12 00:16:25;;;;;;;5.25;2.20;;;20.70;99.90;;;;;;5022945;28;20042;-63
2023/07/12 00:18:54;;;;;;;8.38;2.55;;;20.60;99.90;;;;;;5022422;28;20068;-63
2023/07/12 00:21:24;;;;;;;5.03;2.17;;;20.70;99.90;;;;;;5031099;28;20581;-63
2023/07/12 00:23:56;;;;;;;7.10;2.22;;;20.70;99.90;;;;;;5031270;28;20029;-63
2023/07/12 00:26:35;;;;;;;10.98;2.10;;;20.90;99.90;;;;;;5030114;28;20037;-63
2023/07/12 00:29:05;;;;;;;8.18;2.25;;;20.90;99.90;;;;;;5023057;28;20521;-63
2023/07/12 00:31:33;;;;;;;9.65;2.60;;;20.90;99.90;;;;;;5028110;28;20049;-62
2023/07/12 00:34:02;;;;;;;8.48;2.28;;;20.90;99.90;;;;;;5031252;28;20091;-63
2023/07/12 00:36:30;;;;;;;;;;;20.80;99.90;;;;;;5012729;28;20041;-63
2023/07/12 00:38:58;;;;;;;4.03;2.05;;;20.80;99.90;;;;;;5031565;28;19960;-63
2023/07/12 00:42:01;;;;;;;4.85;2.30;;;20.80;99.90;;;;;;5008775;28;20050;-63
2023/07/12 00:44:35;;;;;;;5.75;2.80;;;20.80;99.90;;;;;;5024035;28;20441;-63
2023/07/12 00:47:02;;;;;;;5.07;2.13;;;20.90;99.90;;;;;;5029549;28;20124;-62
2023/07/12 00:49:29;;;;;;;4.25;2.50;;;21.00;99.90;;;;;;5005505;28;20053;-63
2023/07/12 00:52:05;;;;;;;8.23;2.50;;;21.10;99.90;;;;;;5030507;28;20044;-63
2023/07/12 00:54:49;;;;;;;6.68;2.25;;;21.20;99.90;;;;;;5006302;28;20180;-63
2023/07/12 00:57:16;;;;;;;5.05;2.47;;;21.30;99.90;;;;;;5010020;28;20046;-63
2023/07/12 00:59:44;;;;;;;6.05;2.22;;;21.30;99.90;;;;;;5008161;28;20445;-63
2023/07/12 01:02:12;;;;;;;;;;;21.30;99.90;;;;;;5030204;28;20080;-63
2023/07/12 01:04:48;;;;;;;2.88;1.90;;;21.20;99.90;;;;;;5013295;28;20027;-63
2023/07/12 01:07:16;;;;;;;11.93;2.40;;;21.10;99.90;;;;;;5011755;28;20561;-63
2023/07/12 01:09:43;;;;;;;4.93;2.35;;;20.90;99.90;;;;;;5030687;28;20056;-63
2023/07/12 01:12:10;;;;;;;8.25;2.08;;;20.80;99.90;;;;;;5016970;28;20060;-63
2023/07/12 01:14:43;;;;;;;5.40;2.65;;;20.70;99.90;;;;;;5016955;28;20047;-63
2023/07/12 01:17:10;;;;;;;7.10;2.15;;;20.50;99.90;;;;;;5016539;28;20045;-63
2023/07/12 01:19:38;;;;;;;;;;;20.50;99.90;;;;;;5034344;28;20490;-63
2023/07/12 01:22:05;;;;;;;4.32;2.22;;;20.50;99.90;;;;;;5009461;28;20023;-63
2023/07/12 01:24:34;;;;;;;4.45;2.30;;;20.60;99.90;;;;;;5026496;28;20045;-63
2023/07/12 01:27:11;;;;;;;5.10;2.33;;;20.70;99.90;;;;;;5016625;28;20049;-62
2023/07/12 01:29:39;;;;;;;2.90;2.28;;;20.80;99.90;;;;;;5031990;28;20053;-63
2023/07/12 01:32:09;;;;;;;6.13;2.38;;;20.90;99.90;;;;;;5016926;28;20492;-63
2023/07/12 01:34:36;;;;;;;3.90;2.25;;;21.00;99.90;;;;;;5016869;28;20033;-63
2023/07/12 01:37:05;;;;;;;7.20;2.45;;;21.10;99.90;;;;;;5031520;28;20053;-63
2023/07/12 01:39:33;;;;;;;3.78;1.98;;;21.10;99.90;;;;;;5015284;28;20052;-63
2023/07/12 01:42:00;;;;;;;4.05;1.80;;;21.10;99.90;;;;;;5033559;28;20041;-63
2023/07/12 01:44:27;;;;;;;3.45;1.98;;;21.10;99.90;;;;;;5016548;28;20053;-63
2023/07/12 01:46:55;;;;;;;3.63;2.45;;;21.10;99.90;;;;;;5015883;28;20053;-63
2023/07/12 01:49:22;;;;;;;2.97;1.70;;;21.20;99.90;;;;;;5029863;28;20046;-63
2023/07/12 01:51:49;;;;;;;2.95;1.77;;;21.20;99.90;;;;;;5025127;28;20372;-63
2023/07/12 01:54:16;;;;;;;4.22;1.80;;;21.30;99.90;;;;;;5015000;28;20050;-63
2023/07/12 01:56:43;;;;;;;;;;;21.30;99.90;;;;;;5034495;28;20033;-63
2023/07/12 01:59:10;;;;;;;2.72;1.88;;;21.40;99.90;;;;;;5006732;28;20289;-63
2023/07/12 02:01:37;;;;;;;6.40;2.08;;;21.40;99.90;;;;;;5007848;28;20045;-63
2023/07/12 02:04:04;;;;;;;9.02;2.55;;;21.40;99.90;;;;;;5011629;28;20049;-63
2023/07/12 02:06:30;;;;;;;3.08;2.00;;;21.40;99.90;;;;;;5024980;28;20565;-63
2023/07/12 02:08:57;;;;;;;6.50;2.17;;;21.10;99.90;;;;;;5033703;28;20321;-63
2023/07/12 02:11:24;;;;;;;6.63;2.58;;;20.90;99.90;;;;;;5024039;28;20053;-63
2023/07/12 02:13:51;;;;;;;4.28;2.03;;;20.70;99.90;;;;;;5014997;28;20048;-63
2023/07/12 02:16:18;;;;;;;7.57;2.28;;;20.50;99.90;;;;;;5008024;28;20502;-63
2023/07/12 02:18:46;;;;;;;7.43;2.33;;;20.50;99.90;;;;;;5015167;28;20108;-63
2023/07/12 02:21:13;;;;;;;7.00;2.35;;;20.40;99.90;;;;;;5014698;28;20086;-63
2023/07/12 02:23:39;;;;;;;6.22;2.55;;;20.40;99.90;;;;;;5009861;28;20057;-63
2023/07/12 02:26:06;;;;;;;7.75;2.78;;;20.30;99.90;;;;;;5009479;28;20499;-63
2023/07/12 02:28:34;;;;;;;7.60;2.50;;;20.30;99.90;;;;;;5015761;28;20041;-62
2023/07/12 02:31:19;;;;;;;5.75;2.38;;;20.30;99.90;;;;;;4998430;28;20076;-63
2023/07/12 02:33:46;;;;;;;5.95;3.05;;;20.40;99.90;;;;;;5011972;28;20042;-63
2023/07/12 02:36:13;;;;;;;;;;;20.40;99.90;;;;;;5026188;28;20046;-63
2023/07/12 02:38:40;;;;;;;7.57;2.38;;;20.40;99.90;;;;;;5033052;28;20424;-62
2023/07/12 02:41:07;;;;;;;4.82;2.10;;;20.40;99.90;;;;;;5033300;28;20042;-63
2023/07/12 02:43:35;;;;;;;5.93;2.13;;;20.40;99.90;;;;;;5032879;28;20041;-63
2023/07/12 02:46:01;;;;;;;6.50;2.80;;;20.30;99.90;;;;;;5031621;28;20049;-63
2023/07/12 02:48:28;;;;;;;5.78;2.50;;;20.30;99.90;;;;;;5029169;28;20041;-63
2023/07/12 02:50:55;;;;;;;9.00;2.25;;;20.30;99.90;;;;;;5032078;28;20052;-63
2023/07/12 02:53:22;;;;;;;6.63;2.78;;;20.30;99.90;;;;;;5033343;28;20042;-63
2023/07/12 02:55:49;;;;;;;4.30;2.55;;;20.30;99.90;;;;;;5023440;28;20487;-63
2023/07/12 02:58:17;;;;;;;4.50;2.00;;;20.30;99.90;;;;;;5024500;28;20407;-63
2023/07/12 03:00:44;;;;;;;6.72;2.10;;;20.30;99.90;;;;;;5027197;28;20045;-63
2023/07/12 03:03:11;;;;;;;3.65;2.15;;;20.30;99.90;;;;;;5032673;28;20494;-63
2023/07/12 03:05:39;;;;;;;2.60;1.80;;;20.40;99.90;;;;;;5032010;28;20049;-63
2023/07/12 03:08:07;;;;;;;3.72;2.33;;;20.40;99.90;;;;;;5031374;28;20045;-63
2023/07/12 03:10:37;;;;;;;3.58;1.80;;;20.40;99.90;;;;;;5032821;28;20501;-63
2023/07/12 03:13:04;;;;;;;3.17;2.45;;;20.50;99.90;;;;;;5031876;28;20071;-63
2023/07/12 03:15:31;;;;;;;3.95;2.00;;;20.40;99.90;;;;;;5027362;28;20060;-63
2023/07/12 03:17:57;;;;;;;4.07;2.00;;;20.40;99.90;;;;;;5031722;28;20068;-62
2023/07/12 03:20:24;;;;;;;5.15;2.10;;;20.40;99.90;;;;;;5032477;28;20057;-63
2023/07/12 03:22:51;;;;;;;3.63;2.15;;;20.40;99.90;;;;;;5032022;28;20047;-63
2023/07/12 03:25:18;;;;;;;5.07;2.25;;;20.40;99.90;;;;;;5031438;28;20041;-63
2023/07/12 03:27:47;;;;;;;5.20;2.20;;;20.50;99.90;;;;;;5032001;28;20033;-63
2023/07/12 03:30:14;;;;;;;5.22;2.22;;;20.50;99.90;;;;;;5031246;28;20052;-63
2023/07/12 03:32:41;;;;;;;4.32;2.00;;;20.60;99.90;;;;;;5030570;28;20137;-63
2023/07/12 03:35:08;;;;;;;5.15;1.88;;;20.70;99.90;;;;;;5028371;28;20099;-63
2023/07/12 03:37:35;;;;;;;3.65;2.25;;;20.80;99.90;;;;;;5030971;28;20072;-63
2023/07/12 03:40:03;;;;;;;7.63;2.58;;;20.80;99.90;;;;;;5032594;28;20055;-63
2023/07/12 03:42:30;;;;;;;3.97;2.00;;;20.80;99.90;;;;;;5030522;28;20486;-62
2023/07/12 03:44:56;;;;;;;2.85;1.80;;;20.90;99.90;;;;;;5032219;28;20045;-63
2023/07/12 03:47:23;;;;;;;3.83;2.47;;;20.90;99.90;;;;;;5031777;28;20038;-63
2023/07/12 03:49:50;;;;;;;;;;;20.90;99.90;;;;;;5032007;28;20037;-62
2023/07/12 03:52:17;;;;;;;5.68;2.35;;;21.00;99.90;;;;;;5026408;28;19964;-63
2023/07/12 03:54:44;;;;;;;9.30;2.70;;;20.90;99.90;;;;;;5031658;28;20410;-63
2023/07/12 03:57:11;;;;;;;5.43;2.20;;;20.90;99.90;;;;;;5031133;28;20091;-63
2023/07/12 03:59:37;;;;;;;3.65;2.30;;;20.90;99.90;;;;;;5030390;28;20135;-63
2023/07/12 04:02:04;;;;;;;5.32;2.30;;;20.90;99.90;;;;;;5027559;28;20159;-62
2023/07/12 04:04:31;;;;;;;4.75;2.88;;;20.90;99.90;;;;;;5030501;28;20033;-63
2023/07/12 04:07:00;;;;;;;5.93;2.17;;;21.00;99.90;;;;;;5031613;28;20092;-63
2023/07/12 04:09:27;;;;;;;3.85;2.30;;;20.90;99.90;;;;;;5030278;28;20410;-63
2023/07/12 04:11:54;;;;;;;6.10;3.00;;;20.90;99.90;;;;;;5017243;28;20124;-62
2023/07/12 04:14:20;;;;;;;6.35;2.28;;;20.90;99.90;;;;;;5028709;28;20076;-63
2023/07/12 04:16:47;;;;;;;6.85;2.28;;;20.90;99.90;;;;;;5030705;28;20064;-61
2023/07/12 04:19:14;;;;;;;4.53;2.50;;;20.90;99.90;;;;;;5027272;28;20042;-63
2023/07/12 04:21:41;;;;;;;6.55;2.10;;;20.80;99.90;;;;;;5028140;28;20045;-62
2023/07/12 04:24:08;;;;;;;6.00;2.40;;;20.80;99.90;;;;;;5030724;28;20494;-62
2023/07/12 04:26:37;;;;;;;6.32;2.33;;;21.20;99.90;;;;;;5031037;28;20037;-62
2023/07/12 04:29:05;;;;;;;4.95;2.42;;;20.90;99.90;;;;;;5030428;28;20088;-62
2023/07/12 04:31:32;;;;;;;6.47;2.17;;;20.90;99.90;;;;;;5028265;28;20049;-62
2023/07/12 04:33:58;;;;;;;;;;;20.90;99.90;;;;;;5027006;28;20052;-62
2023/07/12 04:36:25;;;;;;;6.00;2.22;;;21.00;99.90;;;;;;5026220;28;20007;-62
2023/07/12 04:38:52;;;;;;;6.30;2.33;;;21.00;99.90;;;;;;5018971;28;20063;-62
2023/07/12 04:41:19;;;;;;;6.70;2.40;;;21.10;99.90;;;;;;5027548;28;20041;-62
2023/07/12 04:43:46;;;;;;;5.22;2.92;;;21.10;99.90;;;;;;5030308;28;20401;-62
2023/07/12 04:46:12;;;;;;;5.75;2.38;;;21.20;99.90;;;;;;5030216;28;20132;-62
2023/07/12 04:48:39;;;;;;;4.93;2.22;;;21.30;99.90;;;;;;5031188;28;20121;-62
2023/07/12 04:51:06;;;;;;;4.45;1.92;;;21.30;99.90;;;;;;5022909;28;20502;-62
2023/07/12 04:53:34;;;;;;;3.58;2.30;;;21.30;99.90;;;;;;5029886;28;20124;-62
2023/07/12 04:56:01;;;;;;;4.43;2.58;;;21.30;99.90;;;;;;5030529;28;20045;-63
2023/07/12 04:58:29;;;;;;;5.10;2.38;;;21.40;99.90;;;;;;5030364;28;20041;-63
2023/07/12 05:00:55;;;;;;;;;;;21.40;99.90;;;;;;5030561;28;20045;-62
2023/07/12 05:03:24;;;;;;;3.85;2.33;;;21.40;99.90;;;;;;5030772;28;20102;-63
2023/07/12 05:05:51;;;;;;;6.43;2.28;;;21.40;99.90;;;;;;5029968;28;20037;-63
2023/07/12 05:08:18;;;;;;;4.30;1.90;;;21.40;99.90;;;;;;5029426;28;20049;-62
2023/07/12 05:10:45;;;;;;;7.22;2.78;;;21.50;99.90;;;;;;5023704;28;20047;-62
2023/07/12 05:13:12;;;;;;;4.43;2.10;;;21.60;99.90;;;;;;5030123;28;20045;-62
2023/07/12 05:15:38;;;;;;;5.22;2.28;;;21.70;99.90;;;;;;5030900;28;20060;-63
2023/07/12 05:18:05;;;;;;;4.72;1.92;;;21.70;99.90;;;;;;5029672;28;20048;-63
2023/07/12 05:20:32;;;;;;;2.80;1.55;;;21.90;99.90;;;;;;5031049;28;20042;-62
2023/07/12 05:22:59;;;;;;;6.85;2.63;;;21.80;99.90;;;;;;5031004;28;20045;-63
2023/07/12 05:25:26;;;;;;;3.83;2.08;;;21.80;99.90;;;;;;5026598;28;20045;-63
2023/07/12 05:27:53;;;;;;;3.08;1.70;;;21.80;99.90;;;;;;5023422;28;20044;-63
2023/07/12 05:30:19;;;;;;;7.47;2.65;;;21.80;99.90;;;;;;5030422;28;20042;-62
2023/07/12 05:32:46;;;;;;;4.38;2.28;;;21.80;99.90;;;;;;5029589;28;20041;-63
2023/07/12 05:35:13;;;;;;;7.53;2.63;;;21.90;99.90;;;;;;5030104;28;20045;-62
2023/07/12 05:37:40;;;;;;;4.28;1.88;;;21.90;99.90;;;;;;5029819;28;20406;-63
2023/07/12 05:40:09;;;;;;;5.75;2.50;;;21.90;99.90;;;;;;5028652;28;20512;-63
2023/07/12 05:42:40;;;;;;;4.95;2.40;;;21.90;99.90;;;;;;5029698;28;20048;-62
2023/07/12 05:45:13;;;;;;;4.32;2.28;;;22.10;99.90;;;;;;5031115;28;20041;-62
2023/07/12 05:47:42;;;;;;;3.85;2.25;;;22.20;99.90;;;;;;5028440;28;20049;-63
2023/07/12 05:50:11;;;;;;;7.22;2.90;;;22.40;99.90;;;;;;5013347;28;20057;-62
2023/07/12 05:52:38;;;;;;;4.10;2.45;;;22.50;99.90;;;;;;5029855;28;20037;-63
2023/07/12 05:55:07;;;;;;;5.03;2.80;;;22.50;99.90;;;;;;5030895;28;20046;-62
2023/07/12 05:57:34;;;;;;;5.97;3.15;;;22.60;99.90;;;;;;5033317;28;20048;-63
2023/07/12 06:00:01;;;;;;;5.32;2.45;;;22.60;99.90;;;;;;5032986;28;20113;-62
2023/07/12 06:02:31;;;;;;;4.15;2.13;;;22.60;99.90;;;;;;5034071;28;20514;-62
2023/07/12 06:04:58;;;;;;;4.55;2.72;;;22.70;99.90;;;;;;5033757;28;20121;-62
2023/07/12 06:07:25;;;;;;;3.58;2.50;;;22.80;99.90;;;;;;5032710;28;20056;-62
2023/07/12 06:09:52;;;;;;;4.80;2.85;;;22.90;99.90;;;;;;5003954;28;20053;-63
2023/07/12 06:12:18;;;;;;;7.85;2.83;;;22.80;99.90;;;;;;5028156;28;20045;-63
2023/07/12 06:14:45;;;;;;;7.20;2.65;;;22.90;99.90;;;;;;5033883;28;20041;-63
2023/07/12 06:17:12;;;;;;;5.35;2.70;;;22.80;99.90;;;;;;5032736;28;20042;-63
2023/07/12 06:19:39;;;;;;;4.50;2.38;;;22.80;99.90;;;;;;5033589;28;20509;-62
2023/07/12 06:22:06;;;;;;;8.60;3.40;;;22.80;99.90;;;;;;5032570;28;20050;-63
2023/07/12 06:24:32;;;;;;;4.82;2.55;;;22.70;99.90;;;;;;5033529;28;20517;-63
2023/07/12 06:26:59;;;;;;;7.63;3.08;;;22.70;99.90;;;;;;5029758;28;20046;-63
2023/07/12 06:29:27;;;;;;;6.60;2.70;;;22.70;99.90;;;;;;5030597;28;20061;-63
2023/07/12 06:31:54;;;;;;;5.82;3.33;;;22.70;99.90;;;;;;5023942;28;20057;-63
2023/07/12 06:34:21;;;;;;;;;;;22.60;99.90;;;;;;5031736;28;20041;-62
2023/07/12 06:36:48;;;;;;;9.00;2.92;;;22.60;99.90;;;;;;5025257;28;19925;-63
2023/07/12 06:39:16;;;;;;;7.05;3.08;;;22.40;99.90;;;;;;5015116;28;20043;-63
2023/07/12 06:41:42;;;;;;;5.53;2.80;;;22.50;99.90;;;;;;5033755;28;20045;-63
2023/07/12 06:44:09;;;;;;;6.30;2.83;;;22.50;99.90;;;;;;5027773;28;20047;-63
2023/07/12 06:46:36;;;;;;;8.10;2.90;;;22.50;99.90;;;;;;5033153;28;20049;-63
2023/07/12 06:49:03;;;;;;;4.15;2.78;;;22.60;99.90;;;;;;5032069;28;20045;-63
2023/07/12 06:51:30;;;;;;;5.40;2.70;;;22.50;99.90;;;;;;5033426;28;20490;-63
2023/07/12 06:53:57;;;;;;;4.25;2.60;;;22.50;99.90;;;;;;5032294;28;20042;-63
2023/07/12 06:56:23;;;;;;;5.72;3.05;;;22.40;99.90;;;;;;5032607;28;20065;-63
2023/07/12 06:58:50;;;;;;;5.32;3.08;;;22.30;99.90;;;;;;5033354;28;20041;-63
2023/07/12 07:01:17;;;;;;;9.10;3.00;;;22.20;99.90;;;;;;5032134;28;20498;-62
2023/07/12 07:03:44;;;;;;;3.42;2.50;;;22.20;99.90;;;;;;5032325;28;20067;-63
2023/07/12 07:06:10;;;;;;;6.45;2.70;;;22.20;99.90;;;;;;5032414;28;20049;-63
2023/07/12 07:08:37;;;;;;;7.47;3.25;;;22.10;99.90;;;;;;5030495;28;20045;-63
2023/07/12 07:11:04;;;;;;;4.40;2.67;;;22.00;99.90;;;;;;5033007;28;20053;-62
2023/07/12 07:13:31;;;;;;;7.60;3.40;;;22.00;99.90;;;;;;5031935;28;20045;-62
2023/07/12 07:15:58;;;;;;;7.03;2.88;;;21.90;99.90;;;;;;5032465;28;20045;-62
2023/07/12 07:18:25;;;;;;;11.02;2.90;;;22.00;99.90;;;;;;5031374;28;20045;-63
2023/07/12 07:20:52;;;;;;;4.68;2.97;;;22.10;99.90;;;;;;5032807;28;20049;-63
2023/07/12 07:23:19;;;;;;;9.15;3.45;;;22.10;99.90;;;;;;5032075;28;20033;-63
2023/07/12 07:25:46;;;;;;;8.65;2.90;;;22.20;99.90;;;;;;5031299;28;20124;-62
2023/07/12 07:28:13;;;;;;;7.60;3.30;;;22.10;99.90;;;;;;5024329;28;20185;-63
2023/07/12 07:30:40;;;;;;;6.13;3.08;;;22.20;99.90;;;;;;5031564;28;20038;-63
2023/07/12 07:33:07;;;;;;;5.55;2.70;;;22.20;99.90;;;;;;5032640;28;20541;-62
2023/07/12 07:35:34;;;;;;;3.30;2.17;;;22.20;99.90;;;;;;5031346;28;20077;-63
2023/07/12 07:38:01;;;;;;;5.80;2.38;;;22.30;99.90;;;;;;5011472;28;20137;-63
2023/07/12 07:40:28;;;;;;;6.82;2.20;;;22.50;99.90;;;;;;5019412;28;20038;-63
2023/07/12 07:42:55;;;;;;;4.80;2.20;;;22.60;99.90;;;;;;5031456;28;20056;-62
2023/07/12 07:45:22;;;;;;;;;;;22.60;99.90;;;;;;5031291;28;20592;-63
2023/07/12 07:47:49;;;;;;;3.83;2.35;;;22.70;99.90;;;;;;5031546;28;19920;-63
2023/07/12 07:50:16;;;;;;;3.72;1.80;;;22.60;99.90;;;;;;5022927;28;20061;-63
2023/07/12 07:52:43;;;;;;;3.95;2.22;;;22.60;99.90;;;;;;5031795;28;20045;-63
2023/07/12 07:55:09;;;;;;;7.82;2.13;;;22.50;99.90;;;;;;5031257;28;20049;-63
2023/07/12 07:57:36;;;;;;;5.20;1.88;;;22.50;99.90;;;;;;5021634;28;20069;-63
2023/07/12 08:00:07;;;;;;;3.47;1.85;;;22.40;99.90;;;;;;5006746;28;20049;-63
2023/07/12 08:02:38;;;;;;;3.40;2.08;;;22.30;99.90;;;;;;5030784;28;20050;-62
2023/07/12 08:05:05;;;;;;;3.97;2.10;;;22.10;99.90;;;;;;5031087;28;20060;-62
2023/07/12 08:07:44;;;;;;;5.13;2.25;;;21.90;99.90;;;;;;5031209;28;20391;-63
2023/07/12 08:10:14;;;;;;;6.45;1.92;;;21.70;99.90;;;;;;5030614;28;20067;-62
2023/07/12 08:12:41;;;;;;;7.57;2.20;;;21.50;99.90;;;;;;5032006;28;20051;-62
2023/07/12 08:15:09;;;;;;;6.15;2.53;;;21.40;99.90;;;;;;5031063;28;20037;-62
2023/07/12 08:17:37;;;;;;;4.35;2.10;;;21.20;99.90;;;;;;5031222;28;20573;-62
2023/07/12 08:20:07;;;;;;;3.83;2.20;;;21.10;99.90;;;;;;5030381;28;20174;-62
2023/07/12 08:22:34;;;;;;;5.75;2.33;;;21.00;99.90;;;;;;5031189;28;20049;-62
2023/07/12 08:25:01;;;;;;;3.65;2.33;;;20.90;99.90;;;;;;5030830;28;20049;-62
2023/07/12 08:27:28;;;;;;;5.70;2.38;;;20.80;99.90;;;;;;5029514;28;20072;-62
2023/07/12 08:29:54;;;;;;;6.25;2.60;;;20.90;99.90;;;;;;4996324;28;20052;-62
2023/07/12 08:32:21;;;;;;;7.38;2.30;;;20.80;99.90;;;;;;5029333;28;20049;-62
2023/07/12 08:34:48;;;;;;;8.38;2.67;;;20.80;99.90;;;;;;5028899;28;20502;-61
2023/07/12 08:37:15;;;;;;;8.20;3.05;;;20.70;99.90;;;;;;5031045;28;20041;-63
2023/07/12 08:39:41;;;;;;;6.68;2.65;;;20.60;99.90;;;;;;5026509;28;20072;-62
2023/07/12 08:42:14;;;;;;;4.35;2.30;;;20.60;99.90;;;;;;5024074;28;20038;-62
2023/07/12 08:44:41;;;;;;;3.97;2.15;;;20.60;99.90;;;;;;5023059;28;20042;-62
2023/07/12 08:47:18;;;;;;;4.00;2.00;;;20.80;99.90;;;;;;5009918;28;20532;-60
2023/07/12 08:49:45;;;;;;;7.03;2.67;;;21.10;99.90;;;;;;5019394;28;20038;-62
2023/07/12 08:52:17;;;;;;;8.48;2.50;;;21.20;99.90;;;;;;5023072;28;20041;-62
2023/07/12 08:54:44;;;;;;;3.67;2.35;;;21.50;99.90;;;;;;5030740;28;20045;-62
2023/07/12 08:57:23;;;;;;;7.05;2.60;;;21.70;99.90;;;;;;5030508;28;20042;-62
2023/07/12 09:00:14;;;;;;;6.97;2.83;;;21.90;99.90;;;;;;5020536;28;20045;-63
2023/07/12 09:02:41;;;;;;;5.50;2.33;;;22.20;99.90;;;;;;5028580;28;20046;-63
2023/07/12 09:05:16;;;;;;;3.63;2.22;;;22.30;99.90;;;;;;5012539;28;20037;-63
2023/07/12 09:08:00;;;;;;;3.17;2.20;;;22.30;99.90;;;;;;5030907;28;20102;-62
2023/07/12 09:10:33;;;;;;;5.20;2.75;;;22.20;99.90;;;;;;5025402;28;20521;-62
2023/07/12 09:13:01;;;;;;;5.75;2.33;;;22.10;99.90;;;;;;5031057;28;20393;-63
2023/07/12 09:15:36;;;;;;;6.10;3.38;;;22.10;99.90;;;;;;5030283;28;20482;-63
2023/07/12 09:18:09;;;;;;;4.75;2.60;;;22.10;99.90;;;;;;5022625;28;20034;-63
2023/07/12 09:20:40;;;;;;;4.68;3.15;;;22.10;99.90;;;;;;5022987;28;20065;-63
2023/07/12 09:23:11;;;;;;;7.53;3.63;;;22.30;99.90;;;;;;5020755;28;20045;-61
2023/07/12 09:25:39;;;;;;;5.43;2.95;;;22.30;99.90;;;;;;5030539;28;20041;-62
2023/07/12 09:28:10;;;;;;;6.25;3.03;;;22.40;99.90;;;;;;5030255;28;20124;-63
2023/07/12 09:30:37;;;;;;;8.40;3.20;;;22.50;99.90;;;;;;5022218;28;20042;-63
2023/07/12 09:33:05;;;;;;;7.57;3.08;;;22.60;99.90;;;;;;5034610;28;20045;-63
2023/07/12 09:35:40;;;;;;;7.93;3.47;;;22.70;99.90;;;;;;5033394;28;20041;-63
2023/07/12 09:38:16;;;;;;;4.88;3.00;;;23.00;99.90;;;;;;5021708;28;20394;-63
2023/07/12 09:40:46;;;;;;;5.90;3.45;;;23.10;99.90;;;;;;5032205;28;20048;-63
2023/07/12 09:43:19;;;;;;;5.18;3.60;;;23.40;99.90;;;;;;5033625;28;20045;-63
2023/07/12 09:45:52;;;;;;;6.80;3.00;;;23.40;99.90;;;;;;5032874;28;20047;-63
2023/07/12 09:48:47;;;;;;;7.07;3.42;;;23.50;99.90;;;;;;5027694;28;20044;-62
2023/07/12 09:51:28;;;;;;;5.43;3.45;;;23.60;99.90;;;;;;5033066;28;20042;-63
2023/07/12 09:54:19;;;;;;;4.97;3.17;;;23.50;99.90;;;;;;5034591;28;20064;-63
2023/07/12 09:57:19;;;;;;;5.90;3.33;;;23.60;99.90;;;;;;5022174;28;20372;-63
2023/07/12 09:59:56;;;;;;;4.07;3.00;;;23.70;99.90;;;;;;5025314;28;20525;-63
2023/07/12 10:02:47;;;;;;;5.25;3.30;;;23.90;99.90;;;;;;5025886;28;20048;-63
2023/07/12 10:05:22;;;;;;;4.10;2.92;;;24.10;99.90;;;;;;5033478;28;20048;-63
2023/07/12 10:08:00;;;;;;;4.72;3.20;;;24.20;99.90;;;;;;5033800;28;20052;-63
2023/07/12 10:10:53;;;;;;;6.15;3.70;;;24.30;99.90;;;;;;5026375;28;20513;-62
2023/07/12 10:13:31;;;;;;;7.55;3.00;;;24.40;99.90;;;;;;5028267;28;20037;-63
2023/07/12 10:16:00;;;;;;;10.30;3.55;;;24.40;99.90;;;;;;5023981;28;20491;-63
2023/07/12 10:18:34;;;;;;;6.18;3.10;;;24.50;99.90;;;;;;5033969;28;20124;-63
2023/07/12 10:21:02;;;;;;;6.90;3.40;;;24.80;99.90;;;;;;5033392;28;20033;-63
2023/07/12 10:23:36;;;;;;;5.55;3.50;;;25.00;99.90;;;;;;5033340;28;20502;-63
2023/07/12 10:26:05;;;;;;;5.95;3.60;;;25.30;99.90;;;;;;5014573;28;20506;-63
2023/07/12 10:29:09;;;;;;;6.85;3.10;;;25.60;99.90;;;;;;5033771;28;20059;-63
2023/07/12 10:31:46;;;;;;;7.38;3.13;;;25.70;99.90;;;;;;5005495;28;20088;-62
2023/07/12 10:34:43;;;;;;;4.88;3.13;;;25.60;99.90;;;;;;5029418;28;20072;-63
2023/07/12 10:37:55;;;;;;;5.13;3.85;;;25.70;99.90;;;;;;5022121;28;20113;-63
2023/07/12 10:40:30;;;;;;;5.15;3.15;;;25.80;99.90;;;;;;5013279;28;20041;-63
2023/07/12 10:43:04;;;;;;;4.82;2.75;;;25.90;99.90;;;;;;5029323;28;20130;-63
2023/07/12 10:45:36;;;;;;;6.60;2.78;;;26.00;99.90;;;;;;5023978;28;20045;-63
2023/07/12 10:48:04;;;;;;;5.95;3.10;;;26.10;99.90;;;;;;5031585;28;20114;-63
2023/07/12 10:51:16;;;;;;;5.63;3.47;;;26.10;99.90;;;;;;5031784;28;20037;-63
2023/07/12 10:53:52;;;;;;;5.78;3.65;;;26.30;99.90;;;;;;5017887;28;20059;-63
2023/07/12 10:56:32;;;;;;;4.80;2.97;;;26.60;99.90;;;;;;5031890;28;20041;-63
2023/07/12 10:59:02;;;;;;;7.35;3.70;;;26.70;99.90;;;;;;5031647;28;20390;-63
2023/07/12 11:01:36;;;;;;;8.50;3.97;;;26.90;99.90;;;;;;5027020;28;20045;-63
2023/07/12 11:04:37;;;;;;;6.93;3.53;;;26.80;99.90;;;;;;5031773;28;20486;-63
2023/07/12 11:07:14;;;;;;;6.10;3.83;;;26.90;99.90;;;;;;5030017;28;20057;-64
2023/07/12 11:09:47;;;;;;;5.25;3.25;;;27.20;99.90;;;;;;5017722;28;20054;-63
2023/07/12 11:12:25;;;;;;;6.85;3.30;;;27.50;99.90;;;;;;5032193;28;20494;-63
2023/07/12 11:15:04;;;;;;;6.03;3.42;;;27.40;99.90;;;;;;5032329;28;20061;-63
2023/07/12 11:17:48;;;;;;;5.55;3.42;;;27.70;99.90;;;;;;5031803;28;20041;-63
2023/07/12 11:20:27;;;;;;;5.20;3.70;;;27.70;99.90;;;;;;5027936;28;20049;-63
2023/07/12 11:23:06;;;;;;;5.22;3.67;;;27.50;99.90;;;;;;5031724;28;20053;-64
2023/07/12 11:25:44;;;;;;;4.40;3.58;;;27.40;99.90;;;;;;5030696;28;20050;-61
2023/07/12 11:28:20;;;;;;;6.05;3.88;;;27.50;99.90;;;;;;5032325;28;20394;-63
2023/07/12 11:31:02;;;;;;;8.63;3.75;;;27.60;99.90;;;;;;5031409;28;20057;-63
2023/07/12 11:33:33;;;;;;;7.55;3.60;;;27.80;99.90;;;;;;5025467;28;20454;-64
2023/07/12 11:36:06;;;;;;;5.05;3.45;;;27.80;99.90;;;;;;5025077;28;20037;-63
2023/07/12 11:38:35;;;;;;;4.32;3.67;;;27.60;99.90;;;;;;5031810;28;20065;-64
2023/07/12 11:41:05;;;;;;;6.00;3.58;;;27.60;99.90;;;;;;5031731;28;20509;-63
2023/07/12 11:43:37;;;;;;;4.35;3.38;;;27.50;99.90;;;;;;5031629;28;20558;-63
2023/07/12 11:46:15;;;;;;;7.50;3.40;;;27.60;99.90;;;;;;5029393;28;20091;-63
2023/07/12 11:48:48;;;;;;;7.32;3.78;;;27.70;99.90;;;;;;5030147;28;20107;-63
2023/07/12 11:51:27;;;;;;;6.05;3.80;;;27.60;99.90;;;;;;5012675;28;20053;-63
2023/07/12 11:53:56;;;;;;;5.85;3.47;;;28.00;99.90;;;;;;5030357;28;20128;-63
2023/07/12 11:56:24;;;;;;;5.10;3.30;;;28.20;99.90;;;;;;5026743;28;20561;-63
2023/07/12 11:58:51;;;;;;;6.00;3.45;;;28.30;99.90;;;;;;5009818;28;20041;-63
2023/07/12 12:01:21;;;;;;;4.80;3.67;;;28.30;99.90;;;;;;5021716;28;20072;-63
2023/07/12 12:03:50;;;;;;;6.65;3.28;;;28.40;99.90;;;;;;5026639;28;20060;-63
2023/07/12 12:06:19;;;;;;;3.47;3.10;;;28.70;99.90;;;;;;5031156;28;20469;-63
2023/07/12 12:08:54;;;;;;;4.10;3.30;;;28.90;99.90;;;;;;5030114;28;20049;-63
2023/07/12 12:11:21;;;;;;;6.90;4.03;;;28.70;99.70;;;;;;5014920;28;20069;-63
2023/07/12 12:13:53;;;;;;;5.22;3.67;;;28.70;99.50;;;;;;5025905;28;20033;-63
2023/07/12 12:16:28;;;;;;;5.15;3.90;;;28.90;99.90;;;;;;5025419;28;20096;-63
2023/07/12 12:18:59;;;;;;;8.43;3.60;;;29.30;98.90;;;;;;5031057;28;20053;-63
2023/07/12 12:21:26;;;;;;;4.22;3.08;;;29.20;98.10;;;;;;5031257;28;20046;-63
2023/07/12 12:24:06;;;;;;;4.50;3.60;;;29.00;98.50;;;;;;5025917;28;20419;-63
2023/07/12 12:26:37;;;;;;;5.03;3.22;;;28.70;98.70;;;;;;5018659;28;20103;-63
2023/07/12 12:29:19;;;;;;;4.82;3.30;;;29.00;98.50;;;;;;5023792;28;20045;-63
2023/07/12 12:31:55;;;;;;;9.32;3.47;;;29.30;99.90;;;;;;5030445;28;20048;-63
2023/07/12 12:34:25;;;;;;;3.88;3.45;;;29.30;98.80;;;;;;5026761;28;20057;-63
2023/07/12 12:37:08;;;;;;;6.70;3.22;;;29.70;97.10;;;;;;5030165;28;20037;-63
2023/07/12 12:39:35;;;;;;;5.28;3.28;;;30.50;97.60;;;;;;5023698;28;20044;-63
2023/07/12 12:42:20;;;;;;;6.45;3.60;;;31.00;96.70;;;;;;5030229;28;20046;-63
2023/07/12 12:44:47;;;;;;;6.88;3.67;;;31.10;96.60;;;;;;5023260;28;20045;-63
2023/07/12 12:47:24;;;;;;;;;;;31.10;95.20;;;;;;5022681;28;20068;-63
2023/07/12 12:49:52;;;;;;;4.70;3.55;;;30.10;95.30;;;;;;5031140;28;19928;-63
2023/07/12 12:52:29;;;;;;;6.13;3.50;;;29.70;96.40;;;;;;5027401;28;20046;-63
2023/07/12 12:55:08;;;;;;;5.55;3.28;;;29.60;96.40;;;;;;5030922;28;20041;-62
2023/07/12 12:57:55;;;;;;;5.30;3.58;;;29.80;96.20;;;;;;5029748;28;20042;-63
2023/07/12 13:00:27;;;;;;;6.65;3.53;;;29.80;95.90;;;;;;5026176;28;20037;-63
2023/07/12 13:02:57;;;;;;;3.95;3.55;;;29.70;96.50;;;;;;5030158;28;20520;-63
2023/07/12 13:05:28;;;;;;;6.50;3.00;;;30.00;96.00;;;;;;5022887;28;20033;-63
2023/07/12 13:08:04;;;;;;;4.32;2.80;;;30.40;96.10;;;;;;5034165;28;20524;-63